Time;durP1;ratioP1;P1;durP2;ratioP2;P2;SDS_P1;SDS_P2;PMS_P1;PMS_P2;Temp;Humidity;BMP_temperature;BMP_pressure;BME280_temperature;BME280_humidity;BME280_pressure;Samples;Min_cycle;Max_cycle;Signal;HPM_P1;HPM_P2
2023/11/21 00:00:48;;;;;;;4.45;2.30;;;;;;;19.53;48.03;100986.44;5006269;28;20351;-66
2023/11/21 00:03:14;;;;;;;5.57;2.72;;;;;;;19.51;48.09;100991.84;5006250;28;20080;-66
2023/11/21 00:05:43;;;;;;;6.00;2.45;;;;;;;19.50;48.01;100986.69;5005286;28;20128;-66
2023/11/21 00:08:08;;;;;;;5.93;2.67;;;;;;;19.49;47.95;100988.50;5005741;28;20143;-65
2023/11/21 00:10:34;;;;;;;5.50;2.25;;;;;;;19.48;47.81;100993.94;5005941;28;20403;-67
2023/11/21 00:13:02;;;;;;;5.80;2.50;;;;;;;19.48;47.91;101000.03;5007096;28;20022;-65
2023/11/21 00:15:27;;;;;;;7.43;2.45;;;;;;;19.47;47.87;101001.03;5009266;28;20034;-65
2023/11/21 00:17:52;;;;;;;4.45;2.20;;;;;;;19.45;47.74;100999.47;5009265;28;20152;-65
2023/11/21 00:20:18;;;;;;;5.93;2.42;;;;;;;19.44;47.55;101009.22;5009094;28;20134;-66
2023/11/21 00:22:43;;;;;;;4.75;2.13;;;;;;;19.45;47.81;101002.09;5008755;28;20033;-66
2023/11/21 00:25:09;;;;;;;5.60;2.60;;;;;;;19.43;47.52;101004.06;5008913;28;20455;-66
2023/11/21 00:27:37;;;;;;;5.18;2.22;;;;;;;19.40;47.64;101003.31;5008668;28;20026;-67
2023/11/21 00:30:07;;;;;;;5.40;2.45;;;;;;;19.39;47.70;101000.81;5007661;28;20054;-66
2023/11/21 00:32:32;;;;;;;4.93;2.35;;;;;;;19.40;47.57;101005.13;5009210;28;20486;-66
2023/11/21 00:34:57;;;;;;;4.22;2.10;;;;;;;19.37;47.64;100995.66;5008811;28;20029;-66
2023/11/21 00:37:23;;;;;;;5.93;2.60;;;;;;;19.36;47.54;100998.44;5009490;28;20045;-66
2023/11/21 00:39:49;;;;;;;4.68;2.30;;;;;;;19.37;47.44;101006.22;5009517;28;20029;-66
2023/11/21 00:42:14;;;;;;;5.68;2.45;;;;;;;19.35;47.38;101008.16;5009139;28;20481;-65
2023/11/21 00:44:39;;;;;;;4.38;2.35;;;;;;;19.34;47.55;101008.28;5009759;28;20076;-66
2023/11/21 00:47:05;;;;;;;4.07;2.30;;;;;;;19.32;47.36;101003.13;5009072;28;20026;-65
2023/11/21 00:49:30;;;;;;;3.75;2.13;;;;;;;19.31;47.49;101001.47;5009142;28;20026;-66
2023/11/21 00:51:55;;;;;;;4.50;2.10;;;;;;;19.30;47.28;101005.06;5008583;28;20049;-66
2023/11/21 00:54:21;;;;;;;7.30;2.67;;;;;;;19.31;47.35;101013.84;5008425;28;20277;-66
2023/11/21 00:56:48;;;;;;;5.07;2.53;;;;;;;19.30;47.07;101012.19;5008643;28;20436;-66
2023/11/21 00:59:13;;;;;;;3.88;1.90;;;;;;;19.28;46.97;101011.44;5007877;28;20033;-66
2023/11/21 01:01:39;;;;;;;4.47;2.15;;;;;;;19.28;47.18;101014.09;5007982;28;20037;-67
2023/11/21 01:04:05;;;;;;;6.72;2.30;;;;;;;19.25;47.05;101017.84;5008408;28;20038;-68
2023/11/21 01:06:31;;;;;;;4.20;2.25;;;;;;;19.26;47.05;101023.97;5008338;28;20080;-65
2023/11/21 01:08:56;;;;;;;4.40;2.30;;;;;;;19.25;47.03;101024.91;5023086;28;20057;-64
2023/11/21 01:11:21;;;;;;;4.68;2.05;;;;;;;19.24;47.03;101024.09;5007937;28;20040;-65
2023/11/21 01:13:46;;;;;;;4.03;2.20;;;;;;;19.23;46.86;101034.78;5008144;28;20107;-64
2023/11/21 01:16:12;;;;;;;4.18;1.80;;;;;;;19.18;46.90;101033.38;5008045;28;20467;-64
2023/11/21 01:18:37;;;;;;;4.00;2.08;;;;;;;19.20;46.99;101034.06;5007403;28;20018;-65
2023/11/21 01:21:03;;;;;;;5.07;2.35;;;;;;;19.19;46.92;101040.31;5008168;28;20032;-65
2023/11/21 01:23:28;;;;;;;4.00;2.03;;;;;;;19.18;46.61;101046.59;5008382;28;20117;-65
2023/11/21 01:25:56;;;;;;;4.03;2.28;;;;;;;19.17;46.75;101052.00;5007965;28;20021;-65
2023/11/21 01:28:21;;;;;;;6.00;2.22;;;;;;;19.16;46.81;101051.13;5008135;28;20062;-65
2023/11/21 01:30:47;;;;;;;4.97;2.28;;;;;;;19.16;46.65;101050.31;5007514;28;20033;-66
2023/11/21 01:33:13;;;;;;;3.60;2.20;;;;;;;19.15;46.80;101046.84;5008453;28;20360;-66
2023/11/21 01:35:43;;;;;;;5.35;2.20;;;;;;;19.16;46.62;101052.94;5007296;28;20520;-64
2023/11/21 01:38:08;;;;;;;4.43;2.25;;;;;;;19.14;46.63;101053.06;5007618;28;20117;-65
2023/11/21 01:40:34;;;;;;;5.57;2.20;;;;;;;19.13;46.49;101055.84;5007634;28;20104;-65
2023/11/21 01:43:03;;;;;;;3.70;2.10;;;;;;;19.12;46.60;101056.78;5007662;28;20036;-65
2023/11/21 01:45:30;;;;;;;4.25;2.20;;;;;;;19.12;46.71;101067.34;5007868;28;20041;-65
2023/11/21 01:47:56;;;;;;;4.13;2.17;;;;;;;19.10;46.52;101058.72;5007141;28;20057;-65
2023/11/21 01:50:22;;;;;;;5.15;2.38;;;;;;;19.10;46.59;101064.00;5007699;28;20068;-64
2023/11/21 01:52:48;;;;;;;5.28;2.45;;;;;;;19.10;46.53;101066.66;5008212;28;20034;-65
2023/11/21 01:55:18;;;;;;;4.07;2.08;;;;;;;19.09;46.50;101067.59;5007757;28;20026;-66
2023/11/21 01:57:44;;;;;;;5.30;2.40;;;;;;;19.09;46.61;101062.31;5006715;28;20034;-66
2023/11/21 02:00:15;;;;;;;4.00;2.20;;;;;;;19.08;46.47;101058.03;5008001;28;20092;-65
2023/11/21 02:02:44;;;;;;;4.28;2.25;;;;;;;19.08;46.48;101068.59;5007896;28;20125;-64
2023/11/21 02:05:12;;;;;;;4.13;1.98;;;;;;;19.07;46.51;101064.25;5007695;28;20057;-64
2023/11/21 02:07:38;;;;;;;4.03;2.20;;;;;;;19.06;46.40;101063.44;5007264;28;20041;-67
2023/11/21 02:10:04;;;;;;;3.92;1.90;;;;;;;19.05;46.31;101067.03;5007558;28;20038;-66
2023/11/21 02:12:30;;;;;;;6.20;1.92;;;;;;;19.06;46.46;101070.50;5005193;28;20076;-66
2023/11/21 02:14:55;;;;;;;4.88;2.28;;;;;;;19.05;46.51;101071.47;5006313;28;20513;-65
2023/11/21 02:17:21;;;;;;;6.30;2.50;;;;;;;19.03;46.41;101069.78;5007371;28;20034;-66
2023/11/21 02:19:47;;;;;;;3.92;1.95;;;;;;;19.03;46.44;101069.78;5007700;28;20037;-65
2023/11/21 02:22:16;;;;;;;5.25;2.05;;;;;;;19.01;46.36;101082.28;5007172;28;20021;-65
2023/11/21 02:24:42;;;;;;;3.78;2.05;;;;;;;19.02;46.42;101086.59;5006541;28;20374;-66
2023/11/21 02:27:07;;;;;;;4.20;2.28;;;;;;;19.02;46.31;101085.75;5006840;28;20044;-65
2023/11/21 02:29:33;;;;;;;3.42;1.98;;;;;;;19.00;46.14;101087.69;5006165;28;20455;-64
2023/11/21 02:31:59;;;;;;;3.92;2.30;;;;;;;18.99;46.36;101088.66;5006125;28;20049;-65
2023/11/21 02:34:25;;;;;;;3.85;2.03;;;;;;;19.00;46.13;101095.63;5006871;28;20125;-66
2023/11/21 02:36:50;;;;;;;3.30;1.80;;;;;;;18.99;46.27;101104.50;5006732;28;20224;-65
2023/11/21 02:39:16;;;;;;;3.55;1.98;;;;;;;18.97;46.12;101096.69;5006663;28;20116;-65
2023/11/21 02:41:42;;;;;;;3.63;2.08;;;;;;;18.97;46.13;101109.06;5007005;28;20038;-65
2023/11/21 02:44:08;;;;;;;4.03;1.90;;;;;;;18.96;46.06;101107.38;5006871;28;20034;-65
2023/11/21 02:46:34;;;;;;;4.05;1.90;;;;;;;18.97;46.01;101098.50;5006575;28;20052;-65
2023/11/21 02:49:03;;;;;;;3.67;1.90;;;;;;;18.94;46.26;101102.22;5006324;28;20030;-65
2023/11/21 02:51:30;;;;;;;3.67;2.00;;;;;;;18.93;46.24;101103.22;5006959;28;20046;-66
2023/11/21 02:53:58;;;;;;;3.72;1.92;;;;;;;18.94;46.14;101106.69;5007132;28;20080;-67
2023/11/21 02:56:25;;;;;;;3.45;1.90;;;;;;;18.93;46.29;101099.72;5006868;28;20129;-66
2023/11/21 02:58:50;;;;;;;3.40;1.90;;;;;;;18.94;45.81;101109.31;5006670;28;21138;-63
2023/11/21 03:01:16;;;;;;;3.20;1.80;;;;;;;18.92;45.83;101101.53;5006987;28;20030;-64
2023/11/21 03:03:42;;;;;;;3.58;2.00;;;;;;;18.92;45.77;101105.97;5006870;28;20059;-67
2023/11/21 03:06:08;;;;;;;4.20;1.90;;;;;;;18.91;45.76;101101.66;5005586;28;20427;-63
2023/11/21 03:08:33;;;;;;;3.45;1.92;;;;;;;18.92;46.01;101103.34;5006036;28;20038;-65
2023/11/21 03:10:58;;;;;;;4.17;2.00;;;;;;;18.91;45.56;101101.66;5006355;28;20486;-64
2023/11/21 03:13:24;;;;;;;3.53;1.93;;;;;;;18.90;45.95;101102.59;5006554;28;20307;-65
2023/11/21 03:15:49;;;;;;;3.60;2.00;;;;;;;18.88;45.98;101102.72;5006870;28;20268;-66
2023/11/21 03:18:15;;;;;;;3.33;1.83;;;;;;;18.88;45.62;101105.34;5006632;28;20273;-64
2023/11/21 03:20:40;;;;;;;4.25;2.00;;;;;;;18.88;46.13;101101.88;5006692;28;20030;-64
2023/11/21 03:23:05;;;;;;;3.10;1.90;;;;;;;18.85;45.97;101101.19;5007220;28;20475;-65
2023/11/21 03:25:30;;;;;;;3.47;1.98;;;;;;;18.88;45.81;101109.81;5007085;28;20030;-64
2023/11/21 03:27:56;;;;;;;3.53;2.00;;;;;;;18.87;45.62;101110.75;5006558;28;20037;-64
2023/11/21 03:30:21;;;;;;;4.05;2.10;;;;;;;18.86;45.58;101112.56;5007209;28;20042;-64
2023/11/21 03:32:47;;;;;;;3.55;1.95;;;;;;;18.85;45.71;101113.56;5006937;28;20120;-64
2023/11/21 03:35:12;;;;;;;3.63;1.70;;;;;;;18.85;45.76;101117.03;5006698;28;20418;-64
2023/11/21 03:37:41;;;;;;;3.17;1.77;;;;;;;18.85;45.96;101116.19;5006965;28;20025;-65
2023/11/21 03:40:08;;;;;;;3.95;2.00;;;;;;;18.85;46.06;101121.47;5006880;28;20459;-65
2023/11/21 03:42:33;;;;;;;2.92;1.88;;;;;;;18.85;45.73;101119.66;5005925;28;20073;-65
2023/11/21 03:44:59;;;;;;;3.33;2.00;;;;;;;18.85;45.97;101122.31;5006767;28;20380;-65
2023/11/21 03:47:25;;;;;;;2.97;1.80;;;;;;;18.85;45.64;101124.94;5007955;28;20030;-65
2023/11/21 03:49:51;;;;;;;3.38;1.83;;;;;;;18.84;46.00;101119.78;5010360;28;20271;-67
2023/11/21 03:52:16;;;;;;;2.90;1.83;;;;;;;18.84;45.91;101120.63;5010330;28;20037;-66
2023/11/21 03:54:42;;;;;;;3.58;2.00;;;;;;;18.85;45.76;101126.75;5010529;28;20041;-65
2023/11/21 03:57:09;;;;;;;3.25;1.90;;;;;;;18.83;45.70;101128.63;5009868;28;20034;-65
2023/11/21 03:59:34;;;;;;;3.53;2.00;;;;;;;18.82;45.60;101126.97;5010278;28;20080;-66
2023/11/21 04:02:00;;;;;;;5.50;2.50;;;;;;;18.81;45.57;101131.41;5009284;28;20034;-65
2023/11/21 04:04:25;;;;;;;3.30;1.95;;;;;;;18.81;45.80;101134.03;5009647;28;20071;-66
2023/11/21 04:06:51;;;;;;;3.97;2.10;;;;;;;18.82;45.69;101137.53;5011137;28;20030;-65
2023/11/21 04:09:17;;;;;;;3.95;2.10;;;;;;;18.81;45.58;101138.47;5009860;28;20021;-65
2023/11/21 04:11:42;;;;;;;3.75;2.10;;;;;;;18.79;45.46;101135.13;5009630;28;20129;-65
2023/11/21 04:14:09;;;;;;;3.47;2.10;;;;;;;18.79;45.57;101146.53;5009466;28;20025;-66
2023/11/21 04:16:34;;;;;;;3.67;2.20;;;;;;;18.78;45.60;101144.84;5010119;28;20033;-65
2023/11/21 04:19:00;;;;;;;4.22;2.10;;;;;;;18.80;45.48;101152.63;5009922;28;20083;-67
2023/11/21 04:21:25;;;;;;;3.90;2.42;;;;;;;18.79;45.91;101153.63;5009786;28;20037;-65
2023/11/21 04:23:50;;;;;;;3.83;2.25;;;;;;;18.78;45.81;101160.69;5009449;28;20065;-66
2023/11/21 04:26:16;;;;;;;5.00;2.35;;;;;;;18.79;45.85;101166.81;5009886;28;20343;-65
2023/11/21 04:28:41;;;;;;;3.97;2.33;;;;;;;18.78;45.96;101171.25;5009659;28;20061;-65
2023/11/21 04:31:07;;;;;;;3.97;2.25;;;;;;;18.79;45.76;101177.38;5009400;28;20482;-66
2023/11/21 04:33:32;;;;;;;3.85;2.25;;;;;;;18.78;45.85;101178.34;5009497;28;20484;-65
2023/11/21 04:35:57;;;;;;;4.15;2.53;;;;;;;18.78;45.77;101180.97;5009743;28;20034;-65
2023/11/21 04:38:23;;;;;;;3.50;2.00;;;;;;;18.78;45.61;101183.63;5009415;28;20038;-65
2023/11/21 04:40:48;;;;;;;4.57;2.50;;;;;;;18.77;45.62;101188.06;5009061;28;20160;-65
2023/11/21 04:43:13;;;;;;;3.92;2.38;;;;;;;18.78;45.71;101189.72;5024493;28;20030;-66
2023/11/21 04:45:40;;;;;;;3.70;2.13;;;;;;;18.77;45.47;101189.84;5009856;28;20081;-66
2023/11/21 04:48:06;;;;;;;5.13;2.25;;;;;;;18.76;45.51;101189.00;5009727;28;20076;-66
2023/11/21 04:50:32;;;;;;;4.10;2.40;;;;;;;18.76;45.71;101196.09;5009083;28;20022;-66
2023/11/21 04:52:57;;;;;;;3.95;2.33;;;;;;;18.75;45.56;101195.25;5008807;28;20045;-66
2023/11/21 04:55:22;;;;;;;5.00;2.40;;;;;;;18.75;45.49;101189.97;5009067;28;20030;-66
2023/11/21 04:57:47;;;;;;;4.70;2.67;;;;;;;18.75;45.51;101194.41;5008661;28;20061;-65
2023/11/21 05:00:13;;;;;;;4.05;2.13;;;;;;;18.73;45.53;101191.88;5008312;28;20045;-65
2023/11/21 05:02:41;;;;;;;3.90;2.35;;;;;;;18.74;45.69;101198.00;5008474;28;20142;-66
2023/11/21 05:05:07;;;;;;;4.20;2.40;;;;;;;18.74;45.62;101203.28;5008733;28;20026;-66
2023/11/21 05:07:35;;;;;;;4.40;2.30;;;;;;;18.73;45.59;101210.38;5008815;28;20033;-66
2023/11/21 05:10:03;;;;;;;5.00;2.47;;;;;;;18.71;45.50;101207.03;5008896;28;21471;-64
2023/11/21 05:12:38;;;;;;;4.32;2.47;;;;;;;18.71;45.80;101209.66;5008668;28;20121;-66
2023/11/21 05:15:10;;;;;;;4.22;2.63;;;;;;;18.70;45.63;101201.84;5008707;28;20475;-65
2023/11/21 05:17:36;;;;;;;3.95;2.47;;;;;;;18.70;45.73;101197.41;5008310;28;20038;-63
2023/11/21 05:20:03;;;;;;;4.40;2.50;;;;;;;18.70;45.72;101199.22;5008898;28;20131;-64
2023/11/21 05:22:29;;;;;;;4.25;2.58;;;;;;;18.68;45.57;101209.91;5008731;28;20034;-65
2023/11/21 05:24:55;;;;;;;6.10;2.72;;;;;;;18.68;45.33;101218.66;5009031;28;20526;-65
2023/11/21 05:27:20;;;;;;;4.60;2.72;;;;;;;18.69;45.48;101214.19;5007717;28;20136;-65
2023/11/21 05:29:46;;;;;;;5.22;2.75;;;;;;;18.68;45.29;101220.47;5007661;28;20045;-65
2023/11/21 05:32:11;;;;;;;4.60;2.80;;;;;;;18.67;45.56;101219.63;5008794;28;20128;-65
2023/11/21 05:34:36;;;;;;;4.00;2.25;;;;;;;18.68;45.34;101234.50;5009001;28;20478;-66
2023/11/21 05:37:05;;;;;;;6.15;3.10;;;;;;;18.66;45.39;101236.41;5007937;28;20056;-65
2023/11/21 05:39:31;;;;;;;6.10;2.95;;;;;;;18.65;45.64;101239.19;5008172;28;20396;-65
2023/11/21 05:41:57;;;;;;;4.72;2.83;;;;;;;18.64;45.43;101243.63;5008432;28;20040;-65
2023/11/21 05:44:24;;;;;;;5.80;3.20;;;;;;;18.65;45.50;101250.56;5022655;28;20030;-65
2023/11/21 05:46:50;;;;;;;5.13;2.80;;;;;;;18.65;45.74;101253.22;5008368;28;20029;-66
2023/11/21 05:49:15;;;;;;;4.68;2.72;;;;;;;18.65;45.86;101257.66;5008465;28;20033;-65
2023/11/21 05:51:40;;;;;;;5.45;2.65;;;;;;;18.65;45.90;101249.72;5008925;28;21519;-65
2023/11/21 05:54:06;;;;;;;4.33;2.70;;;;;;;18.64;45.49;101256.81;5007691;28;20390;-66
2023/11/21 05:56:31;;;;;;;5.88;3.42;;;;;;;18.64;45.88;101248.91;5023126;28;21405;-64
2023/11/21 05:58:56;;;;;;;5.10;2.83;;;;;;;18.65;45.61;101266.41;5008016;28;20045;-66
2023/11/21 06:01:22;;;;;;;4.60;2.80;;;;;;;18.65;45.68;101262.94;5008066;28;20022;-65
2023/11/21 06:03:48;;;;;;;5.68;3.20;;;;;;;18.64;45.79;101262.09;5007909;28;20080;-66
2023/11/21 06:06:13;;;;;;;4.38;2.80;;;;;;;18.65;45.78;101268.22;5007478;28;20084;-67
2023/11/21 06:08:38;;;;;;;5.93;2.78;;;;;;;18.66;45.58;101276.00;5007596;28;20030;-65
2023/11/21 06:11:04;;;;;;;5.22;2.90;;;;;;;18.68;45.80;101275.91;5006866;28;20038;-65
2023/11/21 06:13:30;;;;;;;5.57;3.00;;;;;;;18.68;45.73;101275.91;5009056;28;20033;-66
2023/11/21 06:15:55;;;;;;;5.72;3.40;;;;;;;18.71;46.03;101288.00;5007674;28;20370;-66
2023/11/21 06:18:21;;;;;;;5.32;2.95;;;;;;;18.72;46.01;101285.25;5007750;28;20037;-65
2023/11/21 06:20:46;;;;;;;4.73;2.70;;;;;;;18.73;46.20;101280.81;5007487;28;20018;-65
2023/11/21 06:23:12;;;;;;;4.70;2.67;;;;;;;18.74;46.34;101287.78;5007302;28;20739;-66
2023/11/21 06:25:37;;;;;;;5.25;2.80;;;;;;;18.76;46.54;101286.72;5007662;28;20084;-65
2023/11/21 06:28:03;;;;;;;5.63;2.83;;;;;;;18.77;46.48;101296.31;5006207;28;20127;-65
2023/11/21 06:30:28;;;;;;;6.80;2.85;;;;;;;18.81;46.43;101299.56;5006784;28;20021;-65
2023/11/21 06:32:54;;;;;;;4.65;2.42;;;;;;;18.86;46.28;101294.78;5007067;28;20037;-65
2023/11/21 06:35:20;;;;;;;4.95;2.70;;;;;;;18.89;46.52;101299.84;5006382;28;20038;-65
2023/11/21 06:37:47;;;;;;;4.72;2.50;;;;;;;18.93;46.35;101305.72;5006115;28;20040;-65
2023/11/21 06:40:14;;;;;;;5.18;2.67;;;;;;;18.95;46.39;101299.38;5006929;28;20021;-65
2023/11/21 06:42:40;;;;;;;5.50;2.88;;;;;;;19.01;46.30;101303.34;5006328;28;20030;-65
2023/11/21 06:45:07;;;;;;;5.18;2.80;;;;;;;19.02;46.31;101300.56;5006810;28;20136;-64
2023/11/21 06:47:32;;;;;;;5.32;2.70;;;;;;;19.06;46.35;101300.31;5006602;28;21337;-64
2023/11/21 06:49:58;;;;;;;5.43;2.60;;;;;;;19.09;46.26;101302.72;5006189;28;20426;-65
2023/11/21 06:52:23;;;;;;;5.97;2.60;;;;;;;19.11;46.33;101300.81;5006224;28;20037;-66
2023/11/21 06:54:51;;;;;;;5.07;2.67;;;;;;;19.13;46.21;101312.94;5006367;28;20379;-66
2023/11/21 06:57:17;;;;;;;4.95;2.78;;;;;;;19.15;46.37;101312.81;5007564;28;20374;-65
2023/11/21 06:59:43;;;;;;;4.80;2.67;;;;;;;19.17;46.14;101318.84;5006693;28;20125;-65
2023/11/21 07:02:09;;;;;;;5.28;2.75;;;;;;;19.17;46.25;101319.66;5006081;28;20565;-65
2023/11/21 07:04:35;;;;;;;5.18;2.70;;;;;;;19.18;46.25;101325.78;5006590;28;20028;-66
2023/11/21 07:07:02;;;;;;;5.32;2.78;;;;;;;19.17;46.33;101326.75;5006951;28;20553;-66
2023/11/21 07:09:27;;;;;;;5.60;2.80;;;;;;;19.17;46.03;101326.75;5007127;28;20536;-65
2023/11/21 07:11:53;;;;;;;6.03;3.28;;;;;;;19.17;45.48;101326.75;5006764;28;20025;-67
2023/11/21 07:14:19;;;;;;;5.53;3.05;;;;;;;19.17;46.23;101330.22;5007287;28;20509;-66
2023/11/21 07:16:45;;;;;;;5.47;2.80;;;;;;;19.17;46.33;101332.03;5007373;28;20069;-65
2023/11/21 07:19:12;;;;;;;7.10;2.80;;;;;;;19.15;46.27;101340.09;5006840;28;20104;-65
2023/11/21 07:21:38;;;;;;;5.82;2.85;;;;;;;19.16;46.33;101349.69;5006641;28;20101;-66
2023/11/21 07:24:04;;;;;;;5.97;3.17;;;;;;;19.16;46.35;101357.59;5009856;28;20178;-68
2023/11/21 07:26:30;;;;;;;6.18;3.10;;;;;;;19.15;46.40;101369.16;5011396;28;20386;-66
2023/11/21 07:28:56;;;;;;;6.03;3.00;;;;;;;19.13;46.58;101370.22;5009860;28;20050;-66
2023/11/21 07:31:22;;;;;;;7.10;2.83;;;;;;;19.13;46.51;101378.97;5010774;28;20445;-65
2023/11/21 07:33:47;;;;;;;5.72;2.95;;;;;;;19.13;46.54;101378.97;5009386;28;20429;-65
2023/11/21 07:36:13;;;;;;;6.22;3.50;;;;;;;19.14;46.53;101379.84;5010137;28;20030;-66
2023/11/21 07:38:39;;;;;;;7.05;3.33;;;;;;;19.13;46.49;101383.44;5010116;28;20049;-67
2023/11/21 07:41:04;;;;;;;6.65;2.80;;;;;;;19.13;46.47;101388.72;5010481;28;20033;-65
2023/11/21 07:43:34;;;;;;;7.25;3.05;;;;;;;19.14;46.46;101395.69;5010934;28;20038;-67
2023/11/21 07:46:02;;;;;;;6.25;3.42;;;;;;;19.13;46.69;101394.00;5009579;28;20041;-67
2023/11/21 07:48:28;;;;;;;5.57;3.22;;;;;;;19.13;46.43;101392.19;5010576;28;20133;-65
2023/11/21 07:50:55;;;;;;;8.38;3.10;;;;;;;19.16;46.52;101396.41;5010945;28;20437;-65
2023/11/21 07:53:21;;;;;;;5.57;2.90;;;;;;;19.18;46.56;101390.06;5009048;28;20052;-67
2023/11/21 07:55:47;;;;;;;7.75;3.30;;;;;;;19.14;46.62;101388.59;5009694;28;20067;-66
2023/11/21 07:58:12;;;;;;;7.40;3.38;;;;;;;19.20;46.26;101392.56;5011341;28;20580;-66
2023/11/21 08:00:39;;;;;;;6.15;3.53;;;;;;;19.19;46.40;101398.81;5009210;28;20518;-65
2023/11/21 08:03:05;;;;;;;7.28;3.80;;;;;;;19.18;46.50;101403.25;5009563;28;20486;-65
2023/11/21 08:05:31;;;;;;;7.57;3.80;;;;;;;19.19;46.40;101402.28;5008312;28;20029;-65
2023/11/21 08:07:56;;;;;;;6.10;2.92;;;;;;;19.18;46.67;101400.63;5009480;28;20026;-67
2023/11/21 08:10:21;;;;;;;6.72;3.55;;;;;;;19.19;46.40;101407.56;5009982;28;20526;-65
2023/11/21 08:12:48;;;;;;;8.02;4.00;;;;;;;19.19;46.54;101412.84;5009822;28;20038;-65
2023/11/21 08:15:13;;;;;;;6.28;3.70;;;;;;;19.18;47.04;101413.84;5009479;28;20084;-65
2023/11/21 08:17:39;;;;;;;8.32;3.67;;;;;;;19.19;46.99;101418.16;5010093;28;20042;-65
2023/11/21 08:20:06;;;;;;;7.47;4.00;;;;;;;19.18;47.10;101424.41;5010121;28;20117;-65
2023/11/21 08:22:31;;;;;;;7.30;3.70;;;;;;;19.19;46.96;101425.25;5010137;28;20121;-64
2023/11/21 08:24:57;;;;;;;6.50;3.45;;;;;;;19.19;47.32;101422.59;5008198;28;20038;-65
2023/11/21 08:27:22;;;;;;;7.47;3.58;;;;;;;19.20;47.28;101422.47;5008269;28;20462;-66
2023/11/21 08:29:48;;;;;;;6.43;3.22;;;;;;;19.19;47.21;101430.53;5009003;28;20045;-66
2023/11/21 08:32:13;;;;;;;7.05;3.25;;;;;;;19.19;47.23;101436.63;5007914;28;20069;-65
2023/11/21 08:34:39;;;;;;;7.07;3.50;;;;;;;19.21;47.16;101437.34;5007299;28;20034;-65
2023/11/21 08:37:05;;;;;;;6.03;3.03;;;;;;;19.21;47.40;101436.53;5009798;28;20417;-66
2023/11/21 08:39:31;;;;;;;7.93;3.15;;;;;;;19.21;47.52;101449.72;5009009;28;20469;-67
2023/11/21 08:41:57;;;;;;;6.03;3.33;;;;;;;19.21;47.49;101453.19;5009100;28;20025;-65
2023/11/21 08:44:22;;;;;;;7.88;3.50;;;;;;;19.19;47.42;101452.50;5008742;28;20037;-64
2023/11/21 08:46:49;;;;;;;6.68;3.63;;;;;;;19.22;47.50;101456.72;5007005;28;20347;-65
2023/11/21 08:49:15;;;;;;;7.63;3.33;;;;;;;19.21;47.63;101461.13;5004705;28;20097;-67
2023/11/21 08:51:41;;;;;;;8.07;3.55;;;;;;;19.20;47.50;101459.47;5005468;28;20033;-65
2023/11/21 08:54:08;;;;;;;6.32;3.30;;;;;;;19.22;47.56;101459.34;5004958;28;20029;-65
2023/11/21 08:56:36;;;;;;;8.30;3.80;;;;;;;19.18;47.72;101461.41;5005119;28;20033;-66
2023/11/21 08:59:02;;;;;;;8.43;3.65;;;;;;;19.20;47.77;101456.81;5003145;28;20037;-67
2023/11/21 09:01:31;;;;;;;7.57;3.47;;;;;;;19.13;47.91;101462.69;5006587;28;20088;-67
2023/11/21 09:03:56;;;;;;;6.50;3.50;;;;;;;19.09;48.17;101464.72;5007917;28;20088;-67
2023/11/21 09:06:45;;;;;;;7.03;3.78;;;;;;;19.08;48.26;101470.13;5008643;28;20038;-65
2023/11/21 09:09:10;;;;;;;7.95;3.58;;;;;;;19.08;48.21;101470.97;5007894;28;20136;-67
2023/11/21 09:11:36;;;;;;;6.45;3.03;;;;;;;19.09;48.26;101463.88;5006635;28;20040;-67
2023/11/21 09:14:03;;;;;;;5.32;3.20;;;;;;;19.10;48.37;101473.50;5006346;28;20046;-66
2023/11/21 09:16:29;;;;;;;6.80;3.80;;;;;;;19.09;48.20;101470.00;5006607;28;20569;-66
2023/11/21 09:18:54;;;;;;;6.82;3.80;;;;;;;19.11;48.47;101477.81;5005669;28;20065;-67
2023/11/21 09:21:19;;;;;;;5.70;3.50;;;;;;;19.12;48.42;101483.00;5005742;28;20205;-66
2023/11/21 09:23:44;;;;;;;7.63;3.57;;;;;;;19.13;48.30;101479.38;5005543;28;20117;-68
2023/11/21 09:26:10;;;;;;;6.75;3.53;;;;;;;19.14;48.06;101489.00;5004249;28;20640;-66
2023/11/21 09:28:37;;;;;;;7.18;3.17;;;;;;;19.15;48.28;101500.41;5004567;28;20171;-66
2023/11/21 09:31:08;;;;;;;6.57;3.20;;;;;;;19.16;48.17;101499.44;5004767;28;20513;-66
2023/11/21 09:33:34;;;;;;;7.13;3.58;;;;;;;19.20;47.97;101496.47;5003554;28;20124;-66
2023/11/21 09:35:59;;;;;;;6.53;3.40;;;;;;;19.25;47.99;101496.13;5002161;28;20345;-67
2023/11/21 09:38:24;;;;;;;6.45;3.47;;;;;;;19.28;48.19;101513.53;5003860;28;20121;-67
2023/11/21 09:40:51;;;;;;;6.50;3.67;;;;;;;19.28;47.73;101510.88;5004674;28;20026;-66
2023/11/21 09:43:17;;;;;;;6.85;3.65;;;;;;;19.30;48.03;101508.97;5004409;28;20339;-67
2023/11/21 09:45:48;;;;;;;6.03;3.00;;;;;;;19.28;48.07;101522.31;5003519;28;20057;-67
2023/11/21 09:48:16;;;;;;;5.80;3.17;;;;;;;19.30;47.80;101525.69;5004882;28;20530;-67
2023/11/21 09:50:42;;;;;;;6.85;3.40;;;;;;;19.33;47.95;101530.72;5003258;28;20053;-66
2023/11/21 09:53:18;;;;;;;6.53;3.40;;;;;;;19.32;47.88;101526.41;5003225;28;20410;-67
2023/11/21 09:55:46;;;;;;;5.75;3.22;;;;;;;19.34;47.82;101527.13;5003022;28;20193;-67
2023/11/21 09:58:14;;;;;;;6.40;3.35;;;;;;;19.35;47.87;101535.91;5003570;28;20504;-65
2023/11/21 10:00:52;;;;;;;6.30;3.65;;;;;;;19.32;48.18;101534.31;5003151;28;20061;-68
2023/11/21 10:03:17;;;;;;;7.60;3.50;;;;;;;19.32;48.22;101538.78;5003559;28;20356;-67
2023/11/21 10:05:45;;;;;;;6.57;3.33;;;;;;;19.32;48.16;101544.88;5004353;28;20034;-67
2023/11/21 10:08:12;;;;;;;5.18;3.30;;;;;;;19.32;48.23;101547.53;5004050;28;20018;-65
2023/11/21 10:10:43;;;;;;;6.32;3.25;;;;;;;19.33;48.21;101554.50;5004094;28;20935;-68
2023/11/21 10:13:12;;;;;;;7.00;3.70;;;;;;;19.32;48.27;101541.41;5003919;28;20075;-65
2023/11/21 10:15:38;;;;;;;6.50;3.53;;;;;;;19.26;48.44;101547.16;5000581;28;20541;-68
2023/11/21 10:18:06;;;;;;;6.57;3.65;;;;;;;19.28;48.47;101543.44;5001269;28;20109;-68
2023/11/21 10:20:33;;;;;;;7.50;3.60;;;;;;;19.30;48.32;101554.75;5000770;28;20057;-65
2023/11/21 10:23:01;;;;;;;7.90;3.58;;;;;;;19.31;48.48;101555.56;5002486;28;20042;-66
2023/11/21 10:25:27;;;;;;;7.03;3.55;;;;;;;19.32;48.43;101565.19;5001615;28;20026;-66
2023/11/21 10:28:00;;;;;;;8.63;3.67;;;;;;;19.31;48.57;101571.44;5002343;28;20030;-66
2023/11/21 10:30:32;;;;;;;6.67;2.97;;;;;;;19.31;48.39;101568.78;5002474;28;20060;-65
2023/11/21 10:33:00;;;;;;;8.70;3.92;;;;;;;19.32;48.59;101566.03;5003044;28;20156;-65
2023/11/21 10:35:38;;;;;;;5.60;3.10;;;;;;;19.31;48.42;101567.00;5002642;28;20044;-65
2023/11/21 10:38:04;;;;;;;7.88;3.40;;;;;;;19.30;48.39;101567.13;5017714;28;20540;-66
2023/11/21 10:40:29;;;;;;;6.43;3.17;;;;;;;19.31;48.48;101566.16;5002348;28;20038;-65
2023/11/21 10:42:58;;;;;;;5.85;3.35;;;;;;;19.32;48.58;101567.84;5003140;28;20036;-65
2023/11/21 10:45:23;;;;;;;6.57;3.50;;;;;;;19.32;48.55;101566.03;5002828;28;20044;-64
2023/11/21 10:47:51;;;;;;;6.35;3.08;;;;;;;19.33;48.57;101573.00;5003153;28;20042;-63
2023/11/21 10:50:18;;;;;;;5.13;2.80;;;;;;;19.34;48.64;101572.06;5003305;28;20037;-64
2023/11/21 10:52:47;;;;;;;6.65;2.85;;;;;;;19.34;48.72;101565.91;5003145;28;20399;-64
2023/11/21 10:55:21;;;;;;;6.47;3.28;;;;;;;19.34;48.88;101568.56;5001649;28;20036;-64
2023/11/21 10:57:48;;;;;;;;;;;;;;;19.45;48.74;101583.63;5002557;28;20036;-66
2023/11/21 11:00:15;;;;;;;6.35;2.67;;;;;;;19.38;48.44;101577.97;5002652;28;19921;-65
2023/11/21 11:02:41;;;;;;;6.10;2.80;;;;;;;19.36;48.61;101577.25;5001653;28;20034;-64
2023/11/21 11:05:11;;;;;;;5.72;2.90;;;;;;;19.34;49.00;101577.34;5002339;28;20108;-66
2023/11/21 11:07:41;;;;;;;6.72;2.70;;;;;;;19.36;48.91;101583.38;5002450;28;20022;-64
2023/11/21 11:10:14;;;;;;;12.63;3.47;;;;;;;19.30;48.96;101580.34;5000514;28;20030;-67
2023/11/21 11:12:39;;;;;;;5.47;2.88;;;;;;;19.23;49.40;101592.31;5004219;28;20061;-68
2023/11/21 11:15:05;;;;;;;6.28;2.70;;;;;;;19.21;49.50;101592.41;5002290;28;20526;-67
2023/11/21 11:17:32;;;;;;;4.60;2.47;;;;;;;19.19;49.65;101600.47;5002047;28;20076;-66
2023/11/21 11:19:58;;;;;;;6.13;2.58;;;;;;;19.17;50.01;101602.38;5002087;28;20042;-66